createdAt,value
2022-08-07T00:00:31.269Z,99.90
2022-08-07T00:02:57.989Z,99.90
2022-08-07T00:05:25.844Z,99.90
2022-08-07T00:07:59.865Z,99.90
2022-08-07T00:10:30.566Z,99.90
2022-08-07T00:13:02.235Z,99.90
2022-08-07T00:15:35.947Z,99.90
2022-08-07T00:18:05.666Z,99.90
2022-08-07T00:20:34.298Z,99.90
2022-08-07T00:23:02.433Z,99.90
2022-08-07T00:25:37.277Z,99.90
2022-08-07T00:28:08.308Z,99.90
2022-08-07T00:30:37.389Z,99.90
2022-08-07T00:33:04.075Z,99.90
2022-08-07T00:35:36.595Z,99.90
2022-08-07T00:38:03.954Z,99.90
2022-08-07T00:40:39.171Z,99.90
2022-08-07T00:43:59.553Z,99.90
2022-08-07T00:45:58.034Z,99.90
2022-08-07T00:48:24.987Z,99.90
2022-08-07T00:50:58.108Z,99.90
2022-08-07T00:53:24.851Z,99.90
2022-08-07T00:56:00.853Z,99.90
2022-08-07T00:58:30.528Z,99.90
2022-08-07T01:00:57.292Z,99.90
2022-08-07T01:03:54.753Z,99.90
2022-08-07T01:06:10.656Z,99.90
2022-08-07T01:08:43.136Z,99.90
2022-08-07T01:12:05.021Z,99.90
2022-08-07T01:14:08.862Z,99.90
2022-08-07T01:16:36.426Z,99.90
2022-08-07T01:19:04.842Z,99.90
2022-08-07T01:21:41.623Z,99.90
2022-08-07T01:24:09.847Z,99.90
2022-08-07T01:26:37.127Z,99.90
2022-08-07T01:29:05.125Z,99.90
2022-08-07T01:31:42.392Z,99.90
2022-08-07T01:34:09.645Z,99.90
2022-08-07T01:36:40.601Z,99.90
2022-08-07T01:39:10.119Z,99.90
2022-08-07T01:41:38.388Z,99.90
2022-08-07T01:44:05.942Z,99.90
2022-08-07T01:46:33.035Z,99.90
2022-08-07T01:48:59.851Z,99.90
2022-08-07T01:52:01.898Z,99.90
2022-08-07T01:54:33.387Z,99.90
2022-08-07T01:57:30.878Z,99.90
2022-08-07T02:00:13.342Z,99.90
2022-08-07T02:03:12.204Z,99.90
2022-08-07T02:06:01.049Z,99.90
2022-08-07T02:08:29.013Z,99.90
2022-08-07T02:10:57.902Z,99.90
2022-08-07T02:13:57.534Z,99.90
2022-08-07T02:16:16.291Z,99.90
2022-08-07T02:18:47.530Z,99.90
2022-08-07T02:21:16.497Z,99.90
2022-08-07T02:23:44.815Z,99.90
2022-08-07T02:26:32.504Z,99.90
2022-08-07T02:29:03.364Z,99.90
2022-08-07T02:31:32.649Z,99.90
2022-08-07T02:34:03.849Z,99.90
2022-08-07T02:36:32.667Z,99.90
2022-08-07T02:39:09.475Z,99.90
2022-08-07T02:41:47.327Z,99.90
2022-08-07T02:44:18.550Z,99.90
2022-08-07T02:46:52.652Z,99.90
2022-08-07T02:49:28.668Z,99.90
2022-08-07T02:52:13.022Z,99.90
2022-08-07T02:54:41.967Z,99.90
2022-08-07T02:57:13.436Z,99.90
2022-08-07T02:59:43.776Z,99.90
2022-08-07T03:02:22.296Z,99.90
2022-08-07T03:04:50.324Z,99.90
2022-08-07T03:07:43.317Z,99.90
2022-08-07T03:10:06.436Z,99.90
2022-08-07T03:12:36.619Z,99.90
2022-08-07T03:15:07.867Z,99.90
2022-08-07T03:17:49.631Z,99.90
2022-08-07T03:20:20.480Z,99.90
2022-08-07T03:22:50.161Z,99.90
2022-08-07T03:25:17.247Z,99.90
2022-08-07T03:28:09.243Z,99.90
2022-08-07T03:30:37.208Z,99.90
2022-08-07T03:33:08.000Z,99.90
2022-08-07T03:35:50.169Z,99.90
2022-08-07T03:38:20.903Z,99.90
2022-08-07T03:40:57.049Z,99.90
2022-08-07T03:43:26.683Z,99.90
2022-08-07T03:45:59.174Z,99.90
2022-08-07T03:48:26.826Z,99.90
2022-08-07T03:50:57.877Z,99.90
2022-08-07T03:53:50.027Z,99.90
2022-08-07T03:56:18.610Z,99.90
2022-08-07T03:59:08.283Z,99.90
2022-08-07T04:01:45.438Z,99.90
2022-08-07T04:04:17.211Z,99.90
2022-08-07T04:06:44.620Z,99.90
2022-08-07T04:09:15.742Z,99.90
2022-08-07T04:12:25.244Z,99.90
2022-08-07T04:14:38.875Z,99.90
2022-08-07T04:17:20.034Z,99.90
2022-08-07T04:19:52.050Z,99.90
2022-08-07T04:22:19.764Z,99.90
2022-08-07T04:24:50.620Z,99.90
2022-08-07T04:27:20.233Z,99.90
2022-08-07T04:30:01.718Z,99.90
2022-08-07T04:32:34.327Z,99.90
2022-08-07T04:35:07.250Z,99.90
2022-08-07T04:37:52.945Z,99.90
2022-08-07T04:40:26.638Z,99.90
2022-08-07T04:43:02.102Z,99.90
2022-08-07T04:46:01.328Z,99.90
2022-08-07T04:48:57.767Z,99.90
2022-08-07T04:51:42.861Z,99.90
2022-08-07T04:54:33.596Z,99.90
2022-08-07T04:58:15.667Z,99.90
2022-08-07T05:00:11.270Z,99.90
2022-08-07T05:02:44.148Z,99.90
2022-08-07T05:05:53.890Z,99.90
2022-08-07T05:08:19.839Z,99.90
2022-08-07T05:11:19.331Z,99.90
2022-08-07T05:14:53.518Z,99.90
2022-08-07T05:16:44.039Z,99.90
2022-08-07T05:19:16.491Z,99.90
2022-08-07T05:21:59.180Z,99.90
2022-08-07T05:24:30.378Z,99.90
2022-08-07T05:26:59.553Z,99.90
2022-08-07T05:29:38.784Z,99.90
2022-08-07T05:32:09.883Z,99.90
2022-08-07T05:34:40.148Z,99.90
2022-08-07T05:37:09.227Z,99.90
2022-08-07T05:40:06.068Z,99.90
2022-08-07T05:42:33.822Z,99.90
2022-08-07T05:45:04.380Z,99.90
2022-08-07T05:48:01.887Z,99.90
2022-08-07T05:50:30.305Z,99.90
2022-08-07T05:52:57.601Z,99.90
2022-08-07T05:55:26.222Z,99.90
2022-08-07T05:58:14.399Z,99.90
2022-08-07T06:00:50.742Z,99.90
2022-08-07T06:03:20.932Z,99.90
2022-08-07T06:05:49.796Z,99.90
2022-08-07T06:08:30.880Z,99.90
2022-08-07T06:10:58.958Z,99.90
2022-08-07T06:14:10.424Z,99.90
2022-08-07T06:16:14.776Z,99.90
2022-08-07T06:18:43.014Z,99.90
2022-08-07T06:22:14.890Z,99.90
2022-08-07T06:24:52.511Z,99.90
2022-08-07T06:26:45.410Z,99.90
2022-08-07T06:29:13.868Z,99.90
2022-08-07T06:31:49.506Z,99.90
2022-08-07T06:34:20.469Z,99.90
2022-08-07T06:36:47.584Z,99.90
2022-08-07T06:40:16.428Z,99.90
2022-08-07T06:42:15.472Z,99.90
2022-08-07T06:44:45.917Z,99.90
2022-08-07T06:47:18.757Z,99.90
2022-08-07T06:49:52.356Z,99.90
2022-08-07T06:52:31.942Z,99.90
2022-08-07T06:55:53.769Z,99.90
2022-08-07T06:58:21.623Z,99.90
2022-08-07T07:00:53.255Z,99.90
2022-08-07T07:03:39.582Z,99.90
2022-08-07T07:06:11.018Z,99.90
2022-08-07T07:08:39.813Z,99.90
2022-08-07T07:12:07.913Z,99.90
2022-08-07T07:14:03.212Z,99.90
2022-08-07T07:16:39.172Z,99.90
2022-08-07T07:19:56.341Z,99.90
2022-08-07T07:22:32.196Z,99.90
2022-08-07T07:25:02.758Z,99.90
2022-08-07T07:27:55.592Z,99.90
2022-08-07T07:30:39.766Z,99.90
2022-08-07T07:33:11.889Z,99.90
2022-08-07T07:35:50.657Z,99.90
2022-08-07T07:38:29.414Z,99.90
2022-08-07T07:41:02.597Z,99.90
2022-08-07T07:43:47.781Z,99.90
2022-08-07T07:46:40.171Z,99.90
2022-08-07T07:50:34.755Z,99.90
2022-08-07T07:51:59.801Z,99.90
2022-08-07T07:54:28.263Z,99.90
2022-08-07T07:56:57.321Z,99.90
2022-08-07T07:59:52.766Z,99.90
2022-08-07T08:02:33.596Z,99.90
2022-08-07T08:05:05.131Z,99.90
2022-08-07T08:07:35.700Z,99.90
2022-08-07T08:10:10.850Z,99.90
2022-08-07T08:12:59.246Z,99.90
2022-08-07T08:15:57.440Z,99.90
2022-08-07T08:18:20.137Z,99.90
2022-08-07T08:20:48.356Z,99.90
2022-08-07T08:23:19.081Z,99.90
2022-08-07T08:25:49.838Z,99.90
2022-08-07T08:28:37.257Z,99.90
2022-08-07T08:31:15.707Z,99.90
2022-08-07T08:33:49.248Z,99.90
2022-08-07T08:36:25.775Z,99.90
2022-08-07T08:38:57.778Z,99.90
2022-08-07T08:41:58.398Z,99.90
2022-08-07T08:44:50.238Z,99.90
2022-08-07T08:47:31.271Z,99.90
2022-08-07T08:50:39.961Z,99.90
2022-08-07T08:53:30.026Z,99.90
2022-08-07T08:56:01.406Z,99.90
2022-08-07T08:58:56.821Z,99.90
2022-08-07T09:01:44.261Z,99.90
2022-08-07T09:04:44.214Z,99.90
2022-08-07T09:07:45.915Z,99.90
2022-08-07T09:10:25.260Z,99.90
2022-08-07T09:13:17.542Z,99.90
2022-08-07T09:16:24.320Z,99.90
2022-08-07T09:19:03.404Z,99.90
2022-08-07T09:22:36.900Z,99.90
2022-08-07T09:25:20.118Z,99.90
2022-08-07T09:28:03.011Z,99.90
2022-08-07T09:30:33.350Z,99.90
2022-08-07T09:33:16.589Z,99.90
2022-08-07T09:36:35.363Z,99.90
2022-08-07T09:39:54.943Z,99.90
2022-08-07T09:42:45.742Z,99.90
2022-08-07T09:47:52.127Z,99.90
2022-08-07T09:49:59.539Z,99.90
2022-08-07T09:52:15.381Z,99.90
2022-08-07T09:54:48.003Z,99.90
2022-08-07T09:57:46.492Z,99.90
2022-08-07T10:00:20.629Z,99.90
2022-08-07T10:04:07.207Z,99.90
2022-08-07T10:06:53.870Z,99.90
2022-08-07T10:10:02.431Z,99.90
2022-08-07T10:13:05.115Z,99.90
2022-08-07T10:15:53.286Z,99.90
2022-08-07T10:18:57.465Z,99.90
2022-08-07T10:22:01.184Z,99.90
2022-08-07T10:24:43.534Z,99.90
2022-08-07T10:27:16.308Z,99.90
2022-08-07T10:29:51.701Z,99.90
2022-08-07T10:32:51.180Z,99.90
2022-08-07T10:35:55.837Z,99.90
2022-08-07T10:38:49.928Z,99.90
2022-08-07T10:41:52.192Z,99.90
2022-08-07T10:44:56.469Z,99.90
2022-08-07T10:47:53.929Z,99.90
2022-08-07T10:50:50.688Z,99.90
2022-08-07T10:53:21.611Z,99.90
2022-08-07T10:56:02.614Z,99.20
2022-08-07T10:58:42.151Z,98.70
2022-08-07T11:01:35.289Z,97.20
2022-08-07T11:04:34.944Z,97.50
2022-08-07T11:07:58.899Z,97.30
2022-08-07T11:10:32.174Z,97.70
2022-08-07T11:13:07.227Z,97.20
2022-08-07T11:15:58.573Z,97.00
2022-08-07T11:18:35.563Z,96.90
2022-08-07T11:21:09.807Z,96.70
2022-08-07T11:23:52.198Z,97.30
2022-08-07T11:26:48.104Z,95.60
2022-08-07T11:29:43.005Z,94.10
2022-08-07T11:32:40.504Z,94.60
2022-08-07T11:35:16.492Z,95.30
2022-08-07T11:38:12.530Z,94.50
2022-08-07T11:40:42.529Z,93.20
2022-08-07T11:43:29.459Z,94.60
2022-08-07T11:46:33.366Z,95.50
2022-08-07T11:50:11.459Z,93.30
2022-08-07T11:53:05.126Z,93.30
2022-08-07T11:56:24.746Z,91.90
2022-08-07T11:58:54.078Z,91.70
2022-08-07T12:01:59.628Z,91.20
2022-08-07T12:04:35.103Z,91.80
2022-08-07T12:07:18.998Z,90.30
2022-08-07T12:09:59.399Z,90.00
2022-08-07T12:12:37.232Z,90.20
2022-08-07T12:15:03.940Z,90.70
2022-08-07T12:18:03.239Z,90.80
2022-08-07T12:21:02.086Z,91.00
2022-08-07T12:24:05.517Z,90.30
2022-08-07T12:26:35.375Z,89.80
2022-08-07T12:29:37.582Z,90.20
2022-08-07T12:32:19.250Z,89.10
2022-08-07T12:34:49.435Z,89.90
2022-08-07T12:37:28.304Z,86.70
2022-08-07T12:40:23.986Z,81.70
2022-08-07T12:43:02.080Z,82.40
2022-08-07T12:45:52.343Z,83.40
2022-08-07T12:48:55.923Z,85.60
2022-08-07T12:51:46.511Z,84.80
2022-08-07T12:54:38.259Z,84.10
2022-08-07T12:57:10.098Z,82.90
2022-08-07T12:59:55.416Z,83.40
2022-08-07T13:02:40.864Z,81.50
2022-08-07T13:06:04.401Z,84.20
2022-08-07T13:08:19.183Z,81.60
2022-08-07T13:10:55.887Z,80.40
2022-08-07T13:13:48.363Z,80.80
2022-08-07T13:16:25.835Z,82.60
2022-08-07T13:19:34.852Z,80.80
2022-08-07T13:22:28.078Z,80.40
2022-08-07T13:25:06.014Z,80.50
2022-08-07T13:28:12.970Z,79.40
2022-08-07T13:30:39.905Z,79.50
2022-08-07T13:34:33.975Z,78.80
2022-08-07T13:36:08.873Z,77.40
2022-08-07T13:39:01.078Z,78.30
2022-08-07T13:41:49.266Z,77.90
2022-08-07T13:44:26.115Z,74.40
2022-08-07T13:46:57.062Z,77.00
2022-08-07T13:50:32.598Z,75.20
2022-08-07T13:52:30.581Z,75.90
2022-08-07T13:55:06.739Z,78.00
2022-08-07T13:57:38.541Z,76.30
2022-08-07T14:00:07.140Z,76.40
2022-08-07T14:02:49.227Z,76.30
2022-08-07T14:05:22.046Z,77.50
2022-08-07T14:08:00.101Z,76.00
2022-08-07T14:10:42.099Z,76.80
2022-08-07T14:13:18.375Z,75.80
2022-08-07T14:16:15.181Z,76.70
2022-08-07T14:18:57.254Z,75.80
2022-08-07T14:22:03.489Z,75.20
2022-08-07T14:24:27.476Z,76.00
2022-08-07T14:27:00.365Z,77.70
2022-08-07T14:30:06.699Z,76.90
2022-08-07T14:32:26.067Z,75.70
2022-08-07T14:34:54.794Z,76.30
2022-08-07T14:37:23.811Z,76.40
2022-08-07T14:40:16.470Z,78.40
2022-08-07T14:43:58.663Z,75.80
2022-08-07T14:45:58.044Z,76.30
2022-08-07T14:48:33.840Z,76.50
2022-08-07T14:51:15.905Z,77.40
2022-08-07T14:54:05.718Z,77.30
2022-08-07T14:56:32.289Z,77.10
2022-08-07T14:59:04.043Z,75.50
2022-08-07T15:01:42.797Z,77.00
2022-08-07T15:04:19.872Z,76.30
2022-08-07T15:06:52.517Z,76.60
2022-08-07T15:09:57.233Z,76.70
2022-08-07T15:12:25.971Z,77.80
2022-08-07T15:15:07.462Z,77.80
2022-08-07T15:25:14.312Z,78.70
2022-08-07T15:26:21.584Z,77.90
2022-08-07T15:28:58.450Z,77.30
2022-08-07T15:31:57.749Z,77.10
2022-08-07T15:34:17.231Z,77.90
2022-08-07T15:39:57.206Z,76.00
2022-08-07T15:42:47.614Z,77.20
2022-08-07T15:48:27.216Z,79.20
2022-08-07T15:51:07.997Z,76.00
2022-08-07T15:53:52.065Z,75.00
2022-08-07T15:56:24.467Z,75.90
2022-08-07T15:58:54.164Z,76.30
2022-08-07T16:01:38.972Z,76.90
2022-08-07T16:04:14.651Z,77.70
2022-08-07T16:06:51.857Z,78.00
2022-08-07T16:09:47.213Z,78.60
2022-08-07T16:12:28.862Z,77.60
2022-08-07T16:15:54.505Z,77.10
2022-08-07T16:18:59.754Z,78.00
2022-08-07T16:22:03.446Z,79.90
2022-08-07T16:24:39.884Z,80.30
2022-08-07T16:27:40.258Z,81.00
2022-08-07T16:30:30.817Z,79.80
2022-08-07T16:34:03.218Z,80.80
2022-08-07T16:36:07.084Z,81.60
2022-08-07T16:39:40.305Z,83.40
2022-08-07T16:42:53.110Z,84.20
2022-08-07T16:47:04.481Z,85.00
2022-08-07T16:50:27.290Z,84.40
2022-08-07T16:52:51.003Z,85.00
2022-08-07T16:55:26.378Z,85.30
2022-08-07T16:58:04.196Z,84.30
2022-08-07T17:00:39.561Z,85.70
2022-08-07T17:03:19.459Z,83.80
2022-08-07T17:06:30.256Z,84.20
2022-08-07T17:10:05.379Z,86.40
2022-08-07T17:12:35.562Z,85.20
2022-08-07T17:15:43.737Z,83.90
2022-08-07T17:18:15.204Z,86.20
2022-08-07T17:20:42.082Z,88.50
2022-08-07T17:23:22.498Z,88.00
2022-08-07T17:26:23.571Z,89.00
2022-08-07T17:30:15.564Z,88.10
2022-08-07T17:32:52.127Z,88.80
2022-08-07T17:35:54.615Z,87.10
2022-08-07T17:38:39.509Z,86.90
2022-08-07T17:42:01.943Z,87.40
2022-08-07T17:44:34.119Z,87.40
2022-08-07T17:47:42.082Z,87.30
2022-08-07T17:50:42.423Z,88.60
2022-08-07T17:54:02.387Z,88.80
2022-08-07T17:56:29.213Z,89.40
2022-08-07T17:58:56.946Z,89.80
2022-08-07T18:01:34.795Z,90.00
2022-08-07T18:04:16.760Z,89.90
2022-08-07T18:07:19.328Z,90.20
2022-08-07T18:10:05.642Z,90.60
2022-08-07T18:13:09.807Z,90.60
2022-08-07T18:16:02.762Z,90.70
2022-08-07T18:21:04.598Z,90.50
2022-08-07T18:21:57.874Z,90.60
2022-08-07T18:24:33.246Z,90.80
2022-08-07T18:27:39.035Z,91.20
2022-08-07T18:30:32.662Z,91.10
2022-08-07T18:33:15.178Z,91.70
2022-08-07T18:36:02.679Z,91.30
2022-08-07T18:40:04.861Z,92.10
2022-08-07T18:41:53.144Z,92.30
2022-08-07T18:45:39.719Z,92.50
2022-08-07T18:47:44.746Z,92.70
2022-08-07T18:50:39.739Z,92.70
2022-08-07T18:53:48.606Z,92.80
2022-08-07T18:56:37.789Z,93.50
2022-08-07T18:59:47.040Z,93.80
2022-08-07T19:02:36.358Z,94.00
2022-08-07T19:05:15.816Z,94.20
2022-08-07T19:07:57.526Z,95.10
2022-08-07T19:10:49.632Z,95.50
2022-08-07T19:13:21.886Z,96.10
2022-08-07T19:17:00.489Z,95.50
2022-08-07T19:19:07.992Z,96.30
2022-08-07T19:21:56.275Z,97.20
2022-08-07T19:24:43.619Z,97.80
2022-08-07T19:28:58.904Z,98.90
2022-08-07T19:31:04.153Z,99.50
2022-08-07T19:32:59.783Z,99.90
2022-08-07T19:35:28.398Z,99.90
2022-08-07T19:38:03.683Z,99.90
2022-08-07T19:40:38.113Z,99.90
2022-08-07T19:43:50.005Z,99.90
2022-08-07T19:46:18.892Z,99.90
2022-08-07T19:48:55.711Z,99.90
2022-08-07T19:51:51.044Z,99.90
2022-08-07T19:54:30.051Z,99.90
2022-08-07T19:58:04.556Z,99.90
2022-08-07T20:00:10.162Z,99.90
2022-08-07T20:02:52.041Z,99.90
2022-08-07T20:05:30.609Z,99.90
2022-08-07T20:08:23.398Z,99.90
2022-08-07T20:10:57.452Z,99.90
2022-08-07T20:13:52.429Z,99.90
2022-08-07T20:16:34.859Z,99.90
2022-08-07T20:19:05.802Z,99.90
2022-08-07T20:21:41.609Z,99.90
2022-08-07T20:24:35.705Z,99.90
2022-08-07T20:27:11.801Z,99.90
2022-08-07T20:29:59.347Z,99.90
2022-08-07T20:32:39.964Z,99.90
2022-08-07T20:35:25.303Z,99.90
2022-08-07T20:37:57.781Z,99.90
2022-08-07T20:40:32.280Z,99.90
2022-08-07T20:43:02.602Z,99.90
2022-08-07T20:45:33.341Z,99.90
2022-08-07T20:48:25.809Z,99.90
2022-08-07T20:50:59.218Z,99.90
2022-08-07T20:54:03.534Z,99.90
2022-08-07T20:56:16.171Z,99.90
2022-08-07T20:58:53.029Z,99.90
2022-08-07T21:01:21.574Z,99.90
2022-08-07T21:04:19.805Z,99.90
2022-08-07T21:06:53.271Z,99.90
2022-08-07T21:09:24.338Z,99.90
2022-08-07T21:11:54.036Z,99.90
2022-08-07T21:14:32.515Z,99.90
2022-08-07T21:18:03.624Z,99.90
2022-08-07T21:20:05.070Z,99.90
2022-08-07T21:22:53.676Z,99.90
2022-08-07T21:26:09.154Z,99.90
2022-08-07T21:28:53.462Z,99.90
2022-08-07T21:31:49.311Z,99.90
2022-08-07T21:34:21.548Z,99.90
2022-08-07T21:37:02.639Z,99.90
2022-08-07T21:40:03.598Z,99.90
2022-08-07T21:42:50.679Z,99.90
2022-08-07T21:46:09.794Z,99.90
2022-08-07T21:48:48.416Z,99.90
2022-08-07T21:51:33.611Z,99.90
2022-08-07T21:54:30.404Z,99.90
2022-08-07T21:57:39.308Z,99.90
2022-08-07T22:00:22.895Z,99.90
2022-08-07T22:03:16.686Z,99.90
2022-08-07T22:06:30.040Z,99.90
2022-08-07T22:09:06.873Z,99.90
2022-08-07T22:11:53.134Z,99.90
2022-08-07T22:14:34.678Z,99.90
2022-08-07T22:17:04.351Z,99.90
2022-08-07T22:19:52.537Z,99.90
2022-08-07T22:22:31.947Z,99.90
2022-08-07T22:25:26.949Z,99.90
2022-08-07T22:28:08.023Z,99.90
2022-08-07T22:31:55.933Z,99.90
2022-08-07T22:34:12.830Z,99.90
2022-08-07T22:36:53.170Z,99.90
2022-08-07T22:39:53.480Z,99.90
2022-08-07T22:42:25.949Z,99.90
2022-08-07T22:45:02.482Z,99.90
2022-08-07T22:47:58.046Z,99.90
2022-08-07T22:51:03.391Z,99.90
2022-08-07T22:54:07.080Z,99.90
2022-08-07T22:57:19.568Z,99.90
2022-08-07T23:00:05.225Z,99.90
2022-08-07T23:02:37.230Z,99.90
2022-08-07T23:06:07.024Z,99.90
2022-08-07T23:08:54.574Z,99.90
2022-08-07T23:11:35.119Z,99.90
2022-08-07T23:14:16.654Z,99.90
2022-08-07T23:16:58.461Z,99.90
2022-08-07T23:19:58.538Z,99.90
2022-08-07T23:22:53.542Z,99.90
2022-08-07T23:25:47.189Z,99.90
2022-08-07T23:28:54.362Z,99.90
2022-08-07T23:34:23.957Z,99.90
2022-08-07T23:35:04.240Z,99.90
2022-08-07T23:38:01.256Z,99.90
2022-08-07T23:40:50.912Z,99.90
2022-08-07T23:43:24.258Z,99.90
2022-08-07T23:46:07.647Z,99.90
2022-08-07T23:49:15.176Z,99.90
2022-08-07T23:52:58.661Z,99.90
2022-08-07T23:54:59.194Z,99.90
2022-08-07T23:57:57.268Z,99.90
